MMMA/MAM METAR and TAF weather

Enter ICAO airport designator
Station Type Date Time Source
MMMA METAR 2021/10/20 00:40 UTC NOAA

MMMA 200040Z 11005KT 8SM FEW020 SCT200 26/23 A2996 RMK 8/104


Station Type Date Time Source
MMMA Decoded METAR 2021/10/20 00:40 UTC NOAA

Matamoros International , Mexico (MMMA) 25-46N 097-32W
Oct 19, 2021 - 08:40 PM EDT / 2021.10.20 0040 UTC
Wind: from the ESE (110 degrees) at 6 MPH (5 KT):0
Visibility: 8 mile(s):0
Sky conditions: partly cloudy
Temperature: 78 F (26 C)
Dew Point: 73 F (23 C)
Relative Humidity: 83%
Pressure (altimeter): 29.96 in. Hg (1014 hPa)
ob: MMMA 200040Z 11005KT 8SM FEW020 SCT200 26/23 A2996 RMK 8/104
cycle: 0

Station Type Date Time Source
MMMA TAF 2021/10/20 06:07 UTC NOAA

TAF MMMA 200500Z 2006/2106 12005KT P6SM SCT020 SCT200
TEMPO 2011/2015 BKN020
FM201800 13015KT P6SM SCT020 SCT220
FM210300 12005KT P6SM SCT020

Example: see airport list